sensor_id;sensor_type;location;lat;lon;timestamp;P1;durP1;ratioP1;P2;durP2;ratioP2
20287;SDS011;10303;51.960;8.372;2023-07-13T00:02:23;0.77;;;0.73;;
20287;SDS011;10303;51.960;8.372;2023-07-13T00:04:51;1.20;;;1.00;;
20287;SDS011;10303;51.960;8.372;2023-07-13T00:07:18;0.70;;;0.70;;
20287;SDS011;10303;51.960;8.372;2023-07-13T00:09:46;1.17;;;1.07;;
20287;SDS011;10303;51.960;8.372;2023-07-13T00:12:27;1.07;;;0.70;;
20287;SDS011;10303;51.960;8.372;2023-07-13T00:14:56;1.63;;;1.10;;
20287;SDS011;10303;51.960;8.372;2023-07-13T00:17:24;0.80;;;0.80;;
20287;SDS011;10303;51.960;8.372;2023-07-13T00:19:52;0.80;;;0.80;;
20287;SDS011;10303;51.960;8.372;2023-07-13T00:22:21;1.10;;;0.97;;
20287;SDS011;10303;51.960;8.372;2023-07-13T00:24:49;3.60;;;0.90;;
20287;SDS011;10303;51.960;8.372;2023-07-13T00:27:17;1.33;;;1.00;;
20287;SDS011;10303;51.960;8.372;2023-07-13T00:29:43;0.80;;;0.80;;
20287;SDS011;10303;51.960;8.372;2023-07-13T00:32:10;0.77;;;0.70;;
20287;SDS011;10303;51.960;8.372;2023-07-13T00:34:37;0.90;;;0.90;;
20287;SDS011;10303;51.960;8.372;2023-07-13T00:37:04;2.40;;;0.90;;
20287;SDS011;10303;51.960;8.372;2023-07-13T00:39:34;2.93;;;1.20;;
20287;SDS011;10303;51.960;8.372;2023-07-13T00:42:02;0.97;;;0.90;;
20287;SDS011;10303;51.960;8.372;2023-07-13T00:44:29;0.80;;;0.80;;
20287;SDS011;10303;51.960;8.372;2023-07-13T00:46:55;0.80;;;0.80;;
20287;SDS011;10303;51.960;8.372;2023-07-13T00:49:24;0.90;;;0.90;;
20287;SDS011;10303;51.960;8.372;2023-07-13T00:52:03;0.80;;;0.77;;
20287;SDS011;10303;51.960;8.372;2023-07-13T00:54:37;1.27;;;1.10;;
20287;SDS011;10303;51.960;8.372;2023-07-13T00:57:11;0.70;;;0.70;;
20287;SDS011;10303;51.960;8.372;2023-07-13T00:59:42;3.97;;;1.03;;
20287;SDS011;10303;51.960;8.372;2023-07-13T01:02:17;0.90;;;0.90;;
20287;SDS011;10303;51.960;8.372;2023-07-13T01:04:44;1.10;;;0.80;;
20287;SDS011;10303;51.960;8.372;2023-07-13T01:07:10;1.20;;;1.00;;
20287;SDS011;10303;51.960;8.372;2023-07-13T01:09:37;3.73;;;0.80;;
20287;SDS011;10303;51.960;8.372;2023-07-13T01:12:04;1.00;;;0.90;;
20287;SDS011;10303;51.960;8.372;2023-07-13T01:14:30;0.60;;;0.60;;
20287;SDS011;10303;51.960;8.372;2023-07-13T01:16:56;0.83;;;0.83;;
20287;SDS011;10303;51.960;8.372;2023-07-13T01:22:05;0.77;;;0.60;;
20287;SDS011;10303;51.960;8.372;2023-07-13T01:24:39;0.70;;;0.70;;
20287;SDS011;10303;51.960;8.372;2023-07-13T01:27:08;3.07;;;1.03;;
20287;SDS011;10303;51.960;8.372;2023-07-13T01:29:39;1.13;;;1.10;;
20287;SDS011;10303;51.960;8.372;2023-07-13T01:32:09;1.33;;;0.90;;
20287;SDS011;10303;51.960;8.372;2023-07-13T01:34:38;0.97;;;0.97;;
20287;SDS011;10303;51.960;8.372;2023-07-13T01:37:08;0.80;;;0.80;;
20287;SDS011;10303;51.960;8.372;2023-07-13T01:39:35;1.10;;;1.00;;
20287;SDS011;10303;51.960;8.372;2023-07-13T01:42:02;0.73;;;0.73;;
20287;SDS011;10303;51.960;8.372;2023-07-13T01:44:28;0.87;;;0.80;;
20287;SDS011;10303;51.960;8.372;2023-07-13T01:46:54;2.90;;;1.00;;
20287;SDS011;10303;51.960;8.372;2023-07-13T01:49:20;1.50;;;1.10;;
20287;SDS011;10303;51.960;8.372;2023-07-13T01:51:46;1.17;;;1.07;;
20287;SDS011;10303;51.960;8.372;2023-07-13T01:54:12;2.37;;;1.23;;
20287;SDS011;10303;51.960;8.372;2023-07-13T01:56:38;1.60;;;1.10;;
20287;SDS011;10303;51.960;8.372;2023-07-13T01:59:05;1.07;;;1.00;;
20287;SDS011;10303;51.960;8.372;2023-07-13T02:01:30;1.23;;;0.97;;
20287;SDS011;10303;51.960;8.372;2023-07-13T02:03:57;1.23;;;0.93;;
20287;SDS011;10303;51.960;8.372;2023-07-13T02:06:22;1.10;;;0.90;;
20287;SDS011;10303;51.960;8.372;2023-07-13T02:08:48;0.80;;;0.80;;
20287;SDS011;10303;51.960;8.372;2023-07-13T02:11:14;0.63;;;0.63;;
20287;SDS011;10303;51.960;8.372;2023-07-13T02:13:40;1.00;;;1.00;;
20287;SDS011;10303;51.960;8.372;2023-07-13T02:16:06;3.63;;;1.23;;
20287;SDS011;10303;51.960;8.372;2023-07-13T02:18:32;0.83;;;0.83;;
20287;SDS011;10303;51.960;8.372;2023-07-13T02:20:58;1.47;;;0.93;;
20287;SDS011;10303;51.960;8.372;2023-07-13T02:23:24;2.43;;;1.37;;
20287;SDS011;10303;51.960;8.372;2023-07-13T02:25:54;0.80;;;0.80;;
20287;SDS011;10303;51.960;8.372;2023-07-13T02:28:21;1.07;;;1.07;;
20287;SDS011;10303;51.960;8.372;2023-07-13T02:30:48;1.33;;;0.87;;
20287;SDS011;10303;51.960;8.372;2023-07-13T02:33:14;1.10;;;1.03;;
20287;SDS011;10303;51.960;8.372;2023-07-13T02:35:40;0.80;;;0.80;;
20287;SDS011;10303;51.960;8.372;2023-07-13T02:38:07;1.10;;;1.10;;
20287;SDS011;10303;51.960;8.372;2023-07-13T02:40:34;1.00;;;0.90;;
20287;SDS011;10303;51.960;8.372;2023-07-13T02:43:01;1.27;;;0.87;;
20287;SDS011;10303;51.960;8.372;2023-07-13T02:45:30;4.57;;;0.90;;
20287;SDS011;10303;51.960;8.372;2023-07-13T02:47:57;3.80;;;1.00;;
20287;SDS011;10303;51.960;8.372;2023-07-13T02:50:23;1.47;;;1.10;;
20287;SDS011;10303;51.960;8.372;2023-07-13T02:52:49;1.37;;;1.10;;
20287;SDS011;10303;51.960;8.372;2023-07-13T02:55:15;1.27;;;1.07;;
20287;SDS011;10303;51.960;8.372;2023-07-13T02:57:41;0.97;;;0.80;;
20287;SDS011;10303;51.960;8.372;2023-07-13T03:00:07;1.93;;;1.10;;
20287;SDS011;10303;51.960;8.372;2023-07-13T03:02:34;1.43;;;0.90;;
20287;SDS011;10303;51.960;8.372;2023-07-13T03:05:01;1.30;;;1.10;;
20287;SDS011;10303;51.960;8.372;2023-07-13T03:07:30;2.20;;;1.63;;
20287;SDS011;10303;51.960;8.372;2023-07-13T03:09:57;2.20;;;1.03;;
20287;SDS011;10303;51.960;8.372;2023-07-13T03:12:32;1.93;;;1.07;;
20287;SDS011;10303;51.960;8.372;2023-07-13T03:14:58;1.97;;;0.97;;
20287;SDS011;10303;51.960;8.372;2023-07-13T03:17:26;1.80;;;1.43;;
20287;SDS011;10303;51.960;8.372;2023-07-13T03:19:52;2.07;;;1.40;;
20287;SDS011;10303;51.960;8.372;2023-07-13T03:22:19;1.50;;;1.40;;
20287;SDS011;10303;51.960;8.372;2023-07-13T03:24:45;1.63;;;1.53;;
20287;SDS011;10303;51.960;8.372;2023-07-13T03:27:12;1.10;;;1.00;;
20287;SDS011;10303;51.960;8.372;2023-07-13T03:29:41;1.70;;;1.30;;
20287;SDS011;10303;51.960;8.372;2023-07-13T03:32:07;2.30;;;1.77;;
20287;SDS011;10303;51.960;8.372;2023-07-13T03:34:34;1.77;;;1.20;;
20287;SDS011;10303;51.960;8.372;2023-07-13T03:37:00;3.23;;;1.10;;
20287;SDS011;10303;51.960;8.372;2023-07-13T03:39:26;2.10;;;0.90;;
20287;SDS011;10303;51.960;8.372;2023-07-13T03:41:54;2.90;;;1.50;;
20287;SDS011;10303;51.960;8.372;2023-07-13T03:44:21;3.73;;;1.90;;
20287;SDS011;10303;51.960;8.372;2023-07-13T03:46:52;1.73;;;1.60;;
20287;SDS011;10303;51.960;8.372;2023-07-13T03:49:18;1.40;;;1.30;;
20287;SDS011;10303;51.960;8.372;2023-07-13T03:51:44;7.23;;;1.43;;
20287;SDS011;10303;51.960;8.372;2023-07-13T03:54:10;3.87;;;1.40;;
20287;SDS011;10303;51.960;8.372;2023-07-13T03:56:36;3.17;;;1.57;;
20287;SDS011;10303;51.960;8.372;2023-07-13T03:59:05;2.80;;;1.40;;
20287;SDS011;10303;51.960;8.372;2023-07-13T04:01:31;3.47;;;1.23;;
20287;SDS011;10303;51.960;8.372;2023-07-13T04:03:57;1.93;;;1.17;;
20287;SDS011;10303;51.960;8.372;2023-07-13T04:06:25;1.10;;;1.10;;
20287;SDS011;10303;51.960;8.372;2023-07-13T04:08:55;1.73;;;1.03;;
20287;SDS011;10303;51.960;8.372;2023-07-13T04:11:25;2.50;;;1.33;;
20287;SDS011;10303;51.960;8.372;2023-07-13T04:13:54;2.13;;;1.17;;
20287;SDS011;10303;51.960;8.372;2023-07-13T04:16:21;0.73;;;0.73;;
20287;SDS011;10303;51.960;8.372;2023-07-13T04:18:48;2.63;;;0.93;;
20287;SDS011;10303;51.960;8.372;2023-07-13T04:21:14;1.57;;;0.80;;
20287;SDS011;10303;51.960;8.372;2023-07-13T04:23:41;1.63;;;0.90;;
20287;SDS011;10303;51.960;8.372;2023-07-13T04:26:08;1.53;;;1.00;;
20287;SDS011;10303;51.960;8.372;2023-07-13T04:28:34;1.30;;;1.20;;
20287;SDS011;10303;51.960;8.372;2023-07-13T04:31:01;0.70;;;0.70;;
20287;SDS011;10303;51.960;8.372;2023-07-13T04:33:27;3.80;;;0.90;;
20287;SDS011;10303;51.960;8.372;2023-07-13T04:35:54;0.57;;;0.57;;
20287;SDS011;10303;51.960;8.372;2023-07-13T04:38:22;7.43;;;1.00;;
20287;SDS011;10303;51.960;8.372;2023-07-13T04:40:57;2.30;;;1.07;;
20287;SDS011;10303;51.960;8.372;2023-07-13T04:43:29;1.63;;;1.27;;
20287;SDS011;10303;51.960;8.372;2023-07-13T04:45:57;1.93;;;0.90;;
20287;SDS011;10303;51.960;8.372;2023-07-13T04:48:32;2.10;;;1.10;;
20287;SDS011;10303;51.960;8.372;2023-07-13T04:51:00;2.83;;;0.87;;
20287;SDS011;10303;51.960;8.372;2023-07-13T04:53:26;3.33;;;0.93;;
20287;SDS011;10303;51.960;8.372;2023-07-13T04:55:53;1.13;;;1.00;;
20287;SDS011;10303;51.960;8.372;2023-07-13T04:58:20;1.47;;;0.80;;
20287;SDS011;10303;51.960;8.372;2023-07-13T05:00:48;0.90;;;0.60;;
20287;SDS011;10303;51.960;8.372;2023-07-13T05:03:14;2.17;;;1.20;;
20287;SDS011;10303;51.960;8.372;2023-07-13T05:05:40;0.83;;;0.83;;
20287;SDS011;10303;51.960;8.372;2023-07-13T05:08:06;2.33;;;0.80;;
20287;SDS011;10303;51.960;8.372;2023-07-13T05:10:33;0.90;;;0.77;;
20287;SDS011;10303;51.960;8.372;2023-07-13T05:13:00;2.77;;;0.90;;
20287;SDS011;10303;51.960;8.372;2023-07-13T05:15:26;1.10;;;0.70;;
20287;SDS011;10303;51.960;8.372;2023-07-13T05:17:52;2.77;;;1.07;;
20287;SDS011;10303;51.960;8.372;2023-07-13T05:20:18;0.70;;;0.70;;
20287;SDS011;10303;51.960;8.372;2023-07-13T05:22:44;2.87;;;1.03;;
20287;SDS011;10303;51.960;8.372;2023-07-13T05:25:13;4.17;;;1.40;;
20287;SDS011;10303;51.960;8.372;2023-07-13T05:27:39;1.17;;;1.10;;
20287;SDS011;10303;51.960;8.372;2023-07-13T05:30:05;2.83;;;0.90;;
20287;SDS011;10303;51.960;8.372;2023-07-13T05:32:36;3.03;;;0.80;;
20287;SDS011;10303;51.960;8.372;2023-07-13T05:35:01;2.27;;;0.67;;
20287;SDS011;10303;51.960;8.372;2023-07-13T05:37:28;2.30;;;0.60;;
20287;SDS011;10303;51.960;8.372;2023-07-13T05:39:53;1.40;;;0.90;;
20287;SDS011;10303;51.960;8.372;2023-07-13T05:42:19;1.03;;;0.90;;
20287;SDS011;10303;51.960;8.372;2023-07-13T05:44:45;2.30;;;0.70;;
20287;SDS011;10303;51.960;8.372;2023-07-13T05:47:11;2.30;;;0.73;;
20287;SDS011;10303;51.960;8.372;2023-07-13T05:49:39;2.70;;;0.87;;
20287;SDS011;10303;51.960;8.372;2023-07-13T05:52:05;1.10;;;0.70;;
20287;SDS011;10303;51.960;8.372;2023-07-13T05:54:31;0.80;;;0.80;;
20287;SDS011;10303;51.960;8.372;2023-07-13T05:56:57;2.30;;;0.80;;
20287;SDS011;10303;51.960;8.372;2023-07-13T05:59:23;1.83;;;0.87;;
20287;SDS011;10303;51.960;8.372;2023-07-13T06:01:50;6.83;;;1.23;;
20287;SDS011;10303;51.960;8.372;2023-07-13T06:04:17;1.30;;;1.20;;
20287;SDS011;10303;51.960;8.372;2023-07-13T06:06:45;4.33;;;1.10;;
20287;SDS011;10303;51.960;8.372;2023-07-13T06:09:11;5.80;;;1.30;;
20287;SDS011;10303;51.960;8.372;2023-07-13T06:11:37;3.70;;;1.03;;
20287;SDS011;10303;51.960;8.372;2023-07-13T06:14:03;2.33;;;1.40;;
20287;SDS011;10303;51.960;8.372;2023-07-13T06:16:29;5.37;;;1.43;;
20287;SDS011;10303;51.960;8.372;2023-07-13T06:18:55;7.13;;;1.20;;
20287;SDS011;10303;51.960;8.372;2023-07-13T06:21:21;9.43;;;1.60;;
20287;SDS011;10303;51.960;8.372;2023-07-13T06:23:49;4.43;;;1.30;;
20287;SDS011;10303;51.960;8.372;2023-07-13T06:26:17;2.47;;;1.10;;
20287;SDS011;10303;51.960;8.372;2023-07-13T06:28:45;3.43;;;1.50;;
20287;SDS011;10303;51.960;8.372;2023-07-13T06:31:11;2.03;;;1.80;;
20287;SDS011;10303;51.960;8.372;2023-07-13T06:33:39;2.57;;;1.20;;
20287;SDS011;10303;51.960;8.372;2023-07-13T06:36:05;2.37;;;1.50;;
20287;SDS011;10303;51.960;8.372;2023-07-13T06:38:33;3.53;;;1.67;;
20287;SDS011;10303;51.960;8.372;2023-07-13T06:40:59;5.13;;;1.30;;
20287;SDS011;10303;51.960;8.372;2023-07-13T06:43:25;4.00;;;2.03;;
20287;SDS011;10303;51.960;8.372;2023-07-13T06:45:53;4.13;;;1.60;;
20287;SDS011;10303;51.960;8.372;2023-07-13T06:48:21;4.50;;;1.77;;
20287;SDS011;10303;51.960;8.372;2023-07-13T06:50:47;6.03;;;1.73;;
20287;SDS011;10303;51.960;8.372;2023-07-13T06:53:17;2.50;;;1.63;;
20287;SDS011;10303;51.960;8.372;2023-07-13T06:55:44;2.00;;;1.57;;
20287;SDS011;10303;51.960;8.372;2023-07-13T06:58:11;1.30;;;1.20;;
20287;SDS011;10303;51.960;8.372;2023-07-13T07:00:38;4.30;;;1.73;;
20287;SDS011;10303;51.960;8.372;2023-07-13T07:03:05;2.33;;;1.50;;
20287;SDS011;10303;51.960;8.372;2023-07-13T07:05:31;2.27;;;1.60;;
20287;SDS011;10303;51.960;8.372;2023-07-13T07:07:57;4.30;;;1.70;;
20287;SDS011;10303;51.960;8.372;2023-07-13T07:10:24;2.20;;;1.37;;
20287;SDS011;10303;51.960;8.372;2023-07-13T07:12:50;5.87;;;2.07;;
20287;SDS011;10303;51.960;8.372;2023-07-13T07:15:18;1.70;;;1.60;;
20287;SDS011;10303;51.960;8.372;2023-07-13T07:17:44;4.40;;;2.67;;
20287;SDS011;10303;51.960;8.372;2023-07-13T07:20:10;4.50;;;2.10;;
20287;SDS011;10303;51.960;8.372;2023-07-13T07:22:37;5.90;;;2.03;;
20287;SDS011;10303;51.960;8.372;2023-07-13T07:25:02;5.77;;;1.70;;
20287;SDS011;10303;51.960;8.372;2023-07-13T07:27:29;4.97;;;2.20;;
20287;SDS011;10303;51.960;8.372;2023-07-13T07:29:55;7.97;;;3.20;;
20287;SDS011;10303;51.960;8.372;2023-07-13T07:32:22;6.43;;;2.40;;
20287;SDS011;10303;51.960;8.372;2023-07-13T07:34:49;3.40;;;1.53;;
20287;SDS011;10303;51.960;8.372;2023-07-13T07:37:15;3.80;;;2.30;;
20287;SDS011;10303;51.960;8.372;2023-07-13T07:39:44;6.40;;;2.73;;
20287;SDS011;10303;51.960;8.372;2023-07-13T07:42:10;3.73;;;1.93;;
20287;SDS011;10303;51.960;8.372;2023-07-13T07:44:37;4.23;;;1.97;;
20287;SDS011;10303;51.960;8.372;2023-07-13T07:47:05;4.70;;;2.67;;
20287;SDS011;10303;51.960;8.372;2023-07-13T07:49:32;1.73;;;1.63;;
20287;SDS011;10303;51.960;8.372;2023-07-13T07:51:58;5.07;;;2.10;;
20287;SDS011;10303;51.960;8.372;2023-07-13T07:54:24;2.47;;;1.90;;
20287;SDS011;10303;51.960;8.372;2023-07-13T07:56:50;3.93;;;1.40;;
20287;SDS011;10303;51.960;8.372;2023-07-13T07:59:16;1.33;;;1.23;;
20287;SDS011;10303;51.960;8.372;2023-07-13T08:01:42;2.33;;;1.90;;
20287;SDS011;10303;51.960;8.372;2023-07-13T08:04:08;3.27;;;2.07;;
20287;SDS011;10303;51.960;8.372;2023-07-13T08:06:34;7.30;;;2.43;;
20287;SDS011;10303;51.960;8.372;2023-07-13T08:09:00;2.10;;;1.90;;
20287;SDS011;10303;51.960;8.372;2023-07-13T08:11:27;3.17;;;1.87;;
20287;SDS011;10303;51.960;8.372;2023-07-13T08:13:54;5.33;;;1.60;;
20287;SDS011;10303;51.960;8.372;2023-07-13T08:16:22;2.80;;;1.60;;
20287;SDS011;10303;51.960;8.372;2023-07-13T08:18:49;3.23;;;1.60;;
20287;SDS011;10303;51.960;8.372;2023-07-13T08:21:15;4.37;;;2.40;;
20287;SDS011;10303;51.960;8.372;2023-07-13T08:23:42;5.15;;;2.03;;
20287;SDS011;10303;51.960;8.372;2023-07-13T08:26:09;2.20;;;1.80;;
20287;SDS011;10303;51.960;8.372;2023-07-13T08:28:35;5.80;;;2.30;;
20287;SDS011;10303;51.960;8.372;2023-07-13T08:31:02;3.30;;;2.03;;
20287;SDS011;10303;51.960;8.372;2023-07-13T08:33:34;5.50;;;2.47;;
20287;SDS011;10303;51.960;8.372;2023-07-13T08:36:03;2.28;;;2.08;;
20287;SDS011;10303;51.960;8.372;2023-07-13T08:38:31;4.68;;;2.50;;
20287;SDS011;10303;51.960;8.372;2023-07-13T08:40:58;6.45;;;3.13;;
20287;SDS011;10303;51.960;8.372;2023-07-13T08:43:35;2.13;;;2.03;;
20287;SDS011;10303;51.960;8.372;2023-07-13T08:48:54;3.53;;;1.95;;
20287;SDS011;10303;51.960;8.372;2023-07-13T08:51:48;2.42;;;2.22;;
20287;SDS011;10303;51.960;8.372;2023-07-13T08:54:23;5.20;;;2.45;;
20287;SDS011;10303;51.960;8.372;2023-07-13T08:57:31;5.15;;;2.55;;
20287;SDS011;10303;51.960;8.372;2023-07-13T08:59:59;3.47;;;2.13;;
20287;SDS011;10303;51.960;8.372;2023-07-13T09:08:10;3.90;;;2.85;;
20287;SDS011;10303;51.960;8.372;2023-07-13T09:11:00;5.60;;;3.42;;
20287;SDS011;10303;51.960;8.372;2023-07-13T09:16:56;3.75;;;2.65;;
20287;SDS011;10303;51.960;8.372;2023-07-13T09:19:25;3.92;;;2.33;;
20287;SDS011;10303;51.960;8.372;2023-07-13T09:21:59;5.13;;;2.60;;
20287;SDS011;10303;51.960;8.372;2023-07-13T09:27:24;4.60;;;2.40;;
20287;SDS011;10303;51.960;8.372;2023-07-13T09:32:39;5.93;;;2.67;;
20287;SDS011;10303;51.960;8.372;2023-07-13T09:35:14;2.58;;;2.38;;
20287;SDS011;10303;51.960;8.372;2023-07-13T09:37:47;3.30;;;2.78;;
20287;SDS011;10303;51.960;8.372;2023-07-13T09:40:25;8.68;;;2.63;;
20287;SDS011;10303;51.960;8.372;2023-07-13T09:43:04;3.03;;;2.80;;
20287;SDS011;10303;51.960;8.372;2023-07-13T09:45:36;2.25;;;2.03;;
20287;SDS011;10303;51.960;8.372;2023-07-13T09:48:06;2.40;;;2.20;;
20287;SDS011;10303;51.960;8.372;2023-07-13T09:50:38;3.80;;;2.60;;
20287;SDS011;10303;51.960;8.372;2023-07-13T09:53:11;3.10;;;2.90;;
20287;SDS011;10303;51.960;8.372;2023-07-13T09:55:47;6.95;;;2.92;;
20287;SDS011;10303;51.960;8.372;2023-07-13T10:00:55;3.67;;;3.22;;
20287;SDS011;10303;51.960;8.372;2023-07-13T10:03:31;3.58;;;2.85;;
20287;SDS011;10303;51.960;8.372;2023-07-13T10:06:13;3.78;;;3.47;;
20287;SDS011;10303;51.960;8.372;2023-07-13T10:08:43;4.47;;;3.38;;
20287;SDS011;10303;51.960;8.372;2023-07-13T10:11:19;4.45;;;3.13;;
20287;SDS011;10303;51.960;8.372;2023-07-13T10:16:43;3.50;;;2.85;;
20287;SDS011;10303;51.960;8.372;2023-07-13T10:19:24;6.03;;;2.95;;
20287;SDS011;10303;51.960;8.372;2023-07-13T10:21:57;2.85;;;2.50;;
20287;SDS011;10303;51.960;8.372;2023-07-13T10:24:27;5.70;;;3.53;;
20287;SDS011;10303;51.960;8.372;2023-07-13T10:27:00;6.50;;;3.67;;
20287;SDS011;10303;51.960;8.372;2023-07-13T10:29:46;3.85;;;3.28;;
20287;SDS011;10303;51.960;8.372;2023-07-13T10:32:17;3.38;;;3.00;;
20287;SDS011;10303;51.960;8.372;2023-07-13T10:34:48;3.55;;;2.55;;
20287;SDS011;10303;51.960;8.372;2023-07-13T10:37:23;3.08;;;2.50;;
20287;SDS011;10303;51.960;8.372;2023-07-13T10:39:55;3.40;;;3.20;;
20287;SDS011;10303;51.960;8.372;2023-07-13T10:42:27;3.75;;;3.25;;
20287;SDS011;10303;51.960;8.372;2023-07-13T10:45:15;3.45;;;3.17;;
20287;SDS011;10303;51.960;8.372;2023-07-13T10:47:45;4.00;;;3.70;;
20287;SDS011;10303;51.960;8.372;2023-07-13T10:50:19;4.60;;;3.17;;
20287;SDS011;10303;51.960;8.372;2023-07-13T10:52:51;4.55;;;3.50;;
20287;SDS011;10303;51.960;8.372;2023-07-13T10:55:33;4.15;;;2.60;;
20287;SDS011;10303;51.960;8.372;2023-07-13T10:58:12;3.03;;;2.78;;
20287;SDS011;10303;51.960;8.372;2023-07-13T11:01:10;3.08;;;2.35;;
20287;SDS011;10303;51.960;8.372;2023-07-13T11:03:48;6.13;;;2.30;;
20287;SDS011;10303;51.960;8.372;2023-07-13T11:11:44;5.05;;;2.80;;
20287;SDS011;10303;51.960;8.372;2023-07-13T11:16:59;3.53;;;1.80;;
20287;SDS011;10303;51.960;8.372;2023-07-13T11:22:52;2.38;;;2.28;;
20287;SDS011;10303;51.960;8.372;2023-07-13T11:25:38;2.45;;;2.05;;
20287;SDS011;10303;51.960;8.372;2023-07-13T11:33:24;3.83;;;2.45;;
20287;SDS011;10303;51.960;8.372;2023-07-13T11:36:14;3.03;;;2.22;;
20287;SDS011;10303;51.960;8.372;2023-07-13T11:38:49;4.85;;;2.25;;
20287;SDS011;10303;51.960;8.372;2023-07-13T11:41:35;2.35;;;2.15;;
20287;SDS011;10303;51.960;8.372;2023-07-13T11:44:14;2.28;;;2.10;;
20287;SDS011;10303;51.960;8.372;2023-07-13T11:46:49;2.97;;;2.10;;
20287;SDS011;10303;51.960;8.372;2023-07-13T11:49:20;2.17;;;1.80;;
20287;SDS011;10303;51.960;8.372;2023-07-13T11:51:52;5.93;;;2.75;;
20287;SDS011;10303;51.960;8.372;2023-07-13T11:54:27;2.83;;;2.20;;
20287;SDS011;10303;51.960;8.372;2023-07-13T11:57:10;3.63;;;1.83;;
20287;SDS011;10303;51.960;8.372;2023-07-13T11:59:50;2.28;;;1.95;;
20287;SDS011;10303;51.960;8.372;2023-07-13T12:02:29;3.10;;;2.35;;
20287;SDS011;10303;51.960;8.372;2023-07-13T12:05:02;2.78;;;1.85;;
20287;SDS011;10303;51.960;8.372;2023-07-13T12:07:31;2.45;;;2.25;;
20287;SDS011;10303;51.960;8.372;2023-07-13T12:10:40;12.25;;;2.55;;
20287;SDS011;10303;51.960;8.372;2023-07-13T12:12:59;2.92;;;2.45;;
20287;SDS011;10303;51.960;8.372;2023-07-13T12:15:39;2.65;;;2.45;;
20287;SDS011;10303;51.960;8.372;2023-07-13T12:18:14;2.65;;;2.45;;
20287;SDS011;10303;51.960;8.372;2023-07-13T12:20:47;2.17;;;2.00;;
20287;SDS011;10303;51.960;8.372;2023-07-13T12:23:25;4.95;;;3.00;;
20287;SDS011;10303;51.960;8.372;2023-07-13T12:26:04;4.97;;;3.33;;
20287;SDS011;10303;51.960;8.372;2023-07-13T12:31:04;3.03;;;2.83;;
20287;SDS011;10303;51.960;8.372;2023-07-13T12:33:44;2.65;;;2.45;;
20287;SDS011;10303;51.960;8.372;2023-07-13T12:36:10;2.22;;;2.00;;
20287;SDS011;10303;51.960;8.372;2023-07-13T12:38:38;3.20;;;2.17;;
20287;SDS011;10303;51.960;8.372;2023-07-13T12:41:05;5.00;;;2.70;;
20287;SDS011;10303;51.960;8.372;2023-07-13T12:43:35;2.47;;;2.28;;
20287;SDS011;10303;51.960;8.372;2023-07-13T12:46:03;2.42;;;2.08;;
20287;SDS011;10303;51.960;8.372;2023-07-13T12:48:41;4.85;;;2.45;;
20287;SDS011;10303;51.960;8.372;2023-07-13T12:51:11;2.25;;;2.13;;
20287;SDS011;10303;51.960;8.372;2023-07-13T12:53:40;2.50;;;2.30;;
20287;SDS011;10303;51.960;8.372;2023-07-13T12:56:15;2.42;;;2.22;;
20287;SDS011;10303;51.960;8.372;2023-07-13T12:58:48;2.08;;;1.92;;
20287;SDS011;10303;51.960;8.372;2023-07-13T13:01:21;1.38;;;1.33;;
20287;SDS011;10303;51.960;8.372;2023-07-13T13:03:52;2.97;;;1.58;;
20287;SDS011;10303;51.960;8.372;2023-07-13T13:06:25;1.88;;;1.70;;
20287;SDS011;10303;51.960;8.372;2023-07-13T13:08:55;1.27;;;1.17;;
20287;SDS011;10303;51.960;8.372;2023-07-13T13:11:27;4.20;;;1.45;;
20287;SDS011;10303;51.960;8.372;2023-07-13T13:13:55;1.52;;;1.42;;
20287;SDS011;10303;51.960;8.372;2023-07-13T13:16:31;3.88;;;2.08;;
20287;SDS011;10303;51.960;8.372;2023-07-13T13:21:41;4.32;;;1.60;;
20287;SDS011;10303;51.960;8.372;2023-07-13T13:24:12;1.67;;;1.50;;
20287;SDS011;10303;51.960;8.372;2023-07-13T13:26:42;4.60;;;1.88;;
20287;SDS011;10303;51.960;8.372;2023-07-13T13:29:14;1.90;;;1.80;;
20287;SDS011;10303;51.960;8.372;2023-07-13T13:31:44;1.83;;;1.70;;
20287;SDS011;10303;51.960;8.372;2023-07-13T13:34:11;1.73;;;1.60;;
20287;SDS011;10303;51.960;8.372;2023-07-13T13:36:40;2.00;;;1.85;;
20287;SDS011;10303;51.960;8.372;2023-07-13T13:39:15;2.28;;;1.90;;
20287;SDS011;10303;51.960;8.372;2023-07-13T13:41:48;1.70;;;1.60;;
20287;SDS011;10303;51.960;8.372;2023-07-13T13:44:16;2.60;;;1.70;;
20287;SDS011;10303;51.960;8.372;2023-07-13T13:46:50;1.70;;;1.60;;
20287;SDS011;10303;51.960;8.372;2023-07-13T13:49:21;5.05;;;2.20;;
20287;SDS011;10303;51.960;8.372;2023-07-13T13:51:52;2.45;;;1.70;;
20287;SDS011;10303;51.960;8.372;2023-07-13T13:54:20;2.45;;;1.23;;
20287;SDS011;10303;51.960;8.372;2023-07-13T13:56:49;3.03;;;1.60;;
20287;SDS011;10303;51.960;8.372;2023-07-13T13:59:16;1.63;;;1.50;;
20287;SDS011;10303;51.960;8.372;2023-07-13T14:01:44;1.33;;;1.20;;
20287;SDS011;10303;51.960;8.372;2023-07-13T14:04:17;2.17;;;1.25;;
20287;SDS011;10303;51.960;8.372;2023-07-13T14:06:46;6.07;;;1.63;;
20287;SDS011;10303;51.960;8.372;2023-07-13T14:09:14;3.78;;;1.83;;
20287;SDS011;10303;51.960;8.372;2023-07-13T14:11:44;3.42;;;1.80;;
20287;SDS011;10303;51.960;8.372;2023-07-13T14:14:14;2.97;;;1.42;;
20287;SDS011;10303;51.960;8.372;2023-07-13T14:16:45;2.03;;;1.38;;
20287;SDS011;10303;51.960;8.372;2023-07-13T14:19:18;2.80;;;1.42;;
20287;SDS011;10303;51.960;8.372;2023-07-13T14:21:44;3.05;;;1.70;;
20287;SDS011;10303;51.960;8.372;2023-07-13T14:24:12;3.80;;;1.75;;
20287;SDS011;10303;51.960;8.372;2023-07-13T14:26:39;1.55;;;1.10;;
20287;SDS011;10303;51.960;8.372;2023-07-13T14:29:14;3.33;;;1.40;;
20287;SDS011;10303;51.960;8.372;2023-07-13T14:31:43;1.20;;;1.10;;
20287;SDS011;10303;51.960;8.372;2023-07-13T14:34:10;1.15;;;1.05;;
20287;SDS011;10303;51.960;8.372;2023-07-13T14:36:42;2.05;;;1.60;;
20287;SDS011;10303;51.960;8.372;2023-07-13T14:41:41;14.48;;;4.50;;
20287;SDS011;10303;51.960;8.372;2023-07-13T14:46:41;22.48;;;8.10;;
20287;SDS011;10303;51.960;8.372;2023-07-13T14:49:13;8.75;;;4.13;;
20287;SDS011;10303;51.960;8.372;2023-07-13T14:51:49;5.70;;;3.75;;
20287;SDS011;10303;51.960;8.372;2023-07-13T14:54:16;3.42;;;2.03;;
20287;SDS011;10303;51.960;8.372;2023-07-13T14:56:42;5.03;;;2.80;;
20287;SDS011;10303;51.960;8.372;2023-07-13T14:59:08;2.72;;;2.33;;
20287;SDS011;10303;51.960;8.372;2023-07-13T15:01:34;3.40;;;2.70;;
20287;SDS011;10303;51.960;8.372;2023-07-13T15:04:02;3.07;;;1.80;;
20287;SDS011;10303;51.960;8.372;2023-07-13T15:06:29;5.77;;;1.90;;
20287;SDS011;10303;51.960;8.372;2023-07-13T15:08:56;3.60;;;1.67;;
20287;SDS011;10303;51.960;8.372;2023-07-13T15:11:23;1.53;;;1.43;;
20287;SDS011;10303;51.960;8.372;2023-07-13T15:13:49;1.70;;;1.60;;
20287;SDS011;10303;51.960;8.372;2023-07-13T15:16:20;2.67;;;1.67;;
20287;SDS011;10303;51.960;8.372;2023-07-13T15:18:49;2.63;;;1.33;;
20287;SDS011;10303;51.960;8.372;2023-07-13T15:21:20;2.30;;;1.43;;
20287;SDS011;10303;51.960;8.372;2023-07-13T15:23:49;0.90;;;0.90;;
20287;SDS011;10303;51.960;8.372;2023-07-13T15:26:17;2.43;;;1.60;;
20287;SDS011;10303;51.960;8.372;2023-07-13T15:28:45;2.37;;;1.20;;
20287;SDS011;10303;51.960;8.372;2023-07-13T15:31:30;1.23;;;1.07;;
20287;SDS011;10303;51.960;8.372;2023-07-13T15:33:59;1.13;;;1.00;;
20287;SDS011;10303;51.960;8.372;2023-07-13T15:36:26;2.33;;;1.10;;
20287;SDS011;10303;51.960;8.372;2023-07-13T15:38:53;0.70;;;0.70;;
20287;SDS011;10303;51.960;8.372;2023-07-13T15:41:21;1.13;;;1.03;;
20287;SDS011;10303;51.960;8.372;2023-07-13T15:43:52;1.63;;;1.27;;
20287;SDS011;10303;51.960;8.372;2023-07-13T15:46:23;0.80;;;0.80;;
20287;SDS011;10303;51.960;8.372;2023-07-13T15:48:51;1.20;;;1.10;;
20287;SDS011;10303;51.960;8.372;2023-07-13T15:53:50;1.17;;;1.07;;
20287;SDS011;10303;51.960;8.372;2023-07-13T15:56:22;0.80;;;0.80;;
20287;SDS011;10303;51.960;8.372;2023-07-13T15:58:54;1.93;;;0.80;;